createdAt,value
2023-02-25T00:02:03.522Z,14.10
2023-02-25T00:04:33.085Z,13.40
2023-02-25T00:07:22.990Z,12.30
2023-02-25T00:09:53.703Z,13.80
2023-02-25T00:12:24.234Z,14.20
2023-02-25T00:14:52.931Z,14.70
2023-02-25T00:17:21.508Z,14.10
2023-02-25T00:19:50.902Z,12.60
2023-02-25T00:22:21.544Z,14.10
2023-02-25T00:24:56.839Z,13.20
2023-02-25T00:27:25.787Z,14.70
2023-02-25T00:29:54.880Z,10.70
2023-02-25T00:32:24.308Z,13.30
2023-02-25T00:34:53.397Z,13.10
2023-02-25T00:37:21.867Z,14.50
2023-02-25T00:39:50.249Z,14.30
2023-02-25T00:42:19.040Z,13.40
2023-02-25T00:44:50.088Z,12.10
2023-02-25T00:47:19.541Z,13.20
2023-02-25T00:49:53.603Z,14.10
2023-02-25T00:52:22.090Z,14.50
2023-02-25T00:54:50.564Z,15.20
2023-02-25T00:57:19.251Z,13.70
2023-02-25T00:59:47.736Z,13.50
2023-02-25T01:02:17.146Z,13.90
2023-02-25T01:04:45.516Z,15.20
2023-02-25T01:07:14.408Z,14.80
2023-02-25T01:09:44.341Z,15.50
2023-02-25T01:12:13.317Z,13.80
2023-02-25T01:14:41.801Z,14.70
2023-02-25T01:17:10.184Z,14.30
2023-02-25T01:19:42.040Z,15.50
2023-02-25T01:22:11.056Z,11.70
2023-02-25T01:24:39.422Z,13.50
2023-02-25T01:27:08.950Z,10.30
2023-02-25T01:29:39.655Z,14.40
2023-02-25T01:32:11.483Z,14.70
2023-02-25T01:34:40.923Z,15.40
2023-02-25T01:37:12.071Z,14.70
2023-02-25T01:39:41.783Z,14.70
2023-02-25T01:42:13.999Z,14.30
2023-02-25T01:45:13.669Z,14.20
2023-02-25T01:47:57.107Z,15.80
2023-02-25T01:50:27.635Z,15.00
2023-02-25T01:52:56.322Z,13.80
2023-02-25T01:55:24.907Z,14.30
2023-02-25T01:57:53.292Z,14.30
2023-02-25T02:00:23.108Z,14.60
2023-02-25T02:02:54.883Z,15.90
2023-02-25T02:05:23.969Z,14.30
2023-02-25T02:07:52.339Z,13.70
2023-02-25T02:10:22.465Z,14.30
2023-02-25T02:12:50.947Z,14.60
2023-02-25T02:15:19.325Z,14.20
2023-02-25T02:18:00.918Z,14.50
2023-02-25T02:20:52.350Z,14.10
2023-02-25T02:23:30.854Z,13.60
2023-02-25T02:26:21.941Z,15.10
2023-02-25T02:29:27.117Z,15.00
2023-02-25T02:32:16.172Z,15.60
2023-02-25T02:35:00.331Z,14.80
2023-02-25T02:37:38.846Z,14.00
2023-02-25T02:40:22.572Z,14.70
2023-02-25T02:43:29.263Z,14.90
2023-02-25T02:46:23.681Z,15.90
2023-02-25T02:49:03.808Z,16.50
2023-02-25T02:51:36.909Z,15.00
2023-02-25T02:54:06.914Z,14.60
2023-02-25T02:56:39.494Z,14.30
2023-02-25T02:59:12.608Z,16.20
2023-02-25T03:01:46.909Z,16.10
2023-02-25T03:04:17.518Z,16.40
2023-02-25T03:06:50.320Z,15.60
2023-02-25T03:09:24.231Z,15.00
2023-02-25T03:11:55.382Z,15.40
2023-02-25T03:14:24.577Z,15.20
2023-02-25T03:17:14.155Z,15.30
2023-02-25T03:19:58.816Z,16.40
2023-02-25T03:22:30.077Z,16.20
2023-02-25T03:25:24.356Z,16.00
2023-02-25T03:27:54.172Z,14.60
2023-02-25T03:30:43.397Z,15.40
2023-02-25T03:33:37.831Z,16.20
2023-02-25T03:36:12.286Z,16.50
2023-02-25T03:38:44.024Z,16.40
2023-02-25T03:41:15.573Z,15.70
2023-02-25T03:43:54.016Z,15.60
2023-02-25T03:46:22.710Z,16.50
2023-02-25T03:48:52.491Z,17.10
2023-02-25T03:51:24.050Z,17.90
2023-02-25T03:53:52.734Z,16.80
2023-02-25T03:56:27.053Z,16.10
2023-02-25T03:58:55.753Z,16.10
2023-02-25T04:01:26.994Z,16.90
2023-02-25T04:03:55.370Z,17.20
2023-02-25T04:08:54.901Z,17.80
2023-02-25T04:11:24.295Z,12.70
2023-02-25T04:13:53.904Z,16.00
2023-02-25T04:16:23.194Z,16.80
2023-02-25T04:18:55.683Z,17.10
2023-02-25T04:21:35.590Z,18.10
2023-02-25T04:24:06.921Z,14.70
2023-02-25T04:26:35.368Z,18.00
2023-02-25T04:29:04.161Z,16.70
2023-02-25T04:31:34.611Z,17.60
2023-02-25T04:34:03.798Z,18.70
2023-02-25T04:36:34.023Z,19.80
2023-02-25T04:39:04.526Z,20.20
2023-02-25T04:41:34.198Z,19.10
2023-02-25T04:44:05.507Z,18.30
2023-02-25T04:46:38.839Z,18.80
2023-02-25T04:49:07.381Z,21.20
2023-02-25T04:51:37.116Z,21.50
2023-02-25T04:54:06.202Z,21.60
2023-02-25T04:56:36.314Z,16.20
2023-02-25T04:59:05.878Z,20.70
2023-02-25T05:01:34.458Z,18.50
2023-02-25T05:04:03.301Z,21.00
2023-02-25T05:06:31.988Z,23.30
2023-02-25T05:09:00.577Z,22.20
2023-02-25T05:11:31.107Z,20.40
2023-02-25T05:13:59.695Z,21.00
2023-02-25T05:16:28.205Z,22.30
2023-02-25T05:18:58.104Z,19.20
2023-02-25T05:21:27.093Z,24.10
2023-02-25T05:23:55.515Z,24.80
2023-02-25T05:26:25.147Z,22.60
2023-02-25T05:28:55.919Z,21.70
2023-02-25T05:31:25.534Z,24.10
2023-02-25T05:33:54.232Z,24.20
2023-02-25T05:36:25.277Z,23.80
2023-02-25T05:39:02.970Z,23.20
2023-02-25T05:41:33.291Z,23.80
2023-02-25T05:44:01.765Z,25.00
2023-02-25T05:46:30.589Z,26.10
2023-02-25T05:48:59.040Z,26.00
2023-02-25T05:51:27.726Z,24.90
2023-02-25T05:53:57.568Z,26.90
2023-02-25T05:56:30.046Z,25.80
2023-02-25T05:59:00.258Z,28.90
2023-02-25T06:01:29.774Z,25.90
2023-02-25T06:03:59.156Z,25.80
2023-02-25T06:08:57.510Z,28.30
2023-02-25T06:11:27.984Z,27.30
2023-02-25T06:13:56.975Z,26.90
2023-02-25T06:16:32.646Z,26.80
2023-02-25T06:19:02.663Z,26.40
2023-02-25T06:21:34.181Z,26.50
2023-02-25T06:24:05.308Z,27.10
2023-02-25T06:26:35.671Z,24.00
2023-02-25T06:29:04.259Z,24.70
2023-02-25T06:31:34.835Z,26.60
2023-02-25T06:34:03.789Z,26.00
2023-02-25T06:36:32.474Z,24.90
2023-02-25T06:39:01.162Z,23.40
2023-02-25T06:41:30.156Z,24.30
2023-02-25T06:43:59.510Z,24.90
2023-02-25T06:46:28.317Z,25.50
2023-02-25T06:48:57.588Z,24.90
2023-02-25T06:51:26.445Z,24.40
2023-02-25T06:53:55.154Z,23.30
2023-02-25T06:56:24.227Z,24.10
2023-02-25T06:58:53.581Z,24.90
2023-02-25T07:01:22.054Z,26.30
2023-02-25T07:03:51.325Z,23.70
2023-02-25T07:06:19.714Z,23.40
2023-02-25T07:08:48.290Z,25.20
2023-02-25T07:13:48.254Z,26.20
2023-02-25T07:16:17.530Z,25.40
2023-02-25T07:18:51.327Z,23.70
2023-02-25T07:21:20.609Z,25.80
2023-02-25T07:23:49.220Z,27.40
2023-02-25T07:26:18.107Z,27.10
2023-02-25T07:28:48.538Z,24.70
2023-02-25T07:31:18.850Z,25.40
2023-02-25T07:33:51.543Z,24.70
2023-02-25T07:36:20.443Z,26.40
2023-02-25T07:38:48.919Z,27.80
2023-02-25T07:41:18.316Z,27.30
2023-02-25T07:43:47.392Z,26.00
2023-02-25T07:46:19.854Z,27.80
2023-02-25T07:48:48.996Z,28.70
2023-02-25T07:51:19.833Z,28.40
2023-02-25T07:53:50.574Z,27.70
2023-02-25T07:56:21.236Z,28.30
2023-02-25T07:58:49.796Z,28.70
2023-02-25T08:01:29.344Z,29.60
2023-02-25T08:03:59.656Z,28.10
2023-02-25T08:08:56.629Z,29.20
2023-02-25T08:11:26.363Z,29.30
2023-02-25T08:13:54.840Z,30.40
2023-02-25T08:16:23.509Z,30.20
2023-02-25T08:18:54.343Z,29.30
2023-02-25T08:21:24.061Z,29.10
2023-02-25T08:23:53.155Z,29.90
2023-02-25T08:26:22.874Z,28.90
2023-02-25T08:28:51.509Z,31.50
2023-02-25T08:31:20.317Z,28.60
2023-02-25T08:33:49.849Z,29.20
2023-02-25T08:36:27.077Z,30.90
2023-02-25T08:38:57.285Z,32.30
2023-02-25T08:41:26.733Z,30.00
2023-02-25T08:43:56.073Z,28.80
2023-02-25T08:46:28.906Z,30.20
2023-02-25T08:48:57.572Z,30.10
2023-02-25T08:51:34.375Z,30.20
2023-02-25T08:54:08.037Z,29.40
2023-02-25T08:56:36.495Z,28.50
2023-02-25T08:59:05.382Z,28.90
2023-02-25T09:01:46.008Z,29.50
2023-02-25T09:04:19.398Z,31.60
2023-02-25T09:06:47.929Z,29.60
2023-02-25T09:09:17.282Z,31.40
2023-02-25T09:11:46.227Z,29.20
2023-02-25T09:14:16.667Z,28.80
2023-02-25T09:16:47.045Z,29.90
2023-02-25T09:19:18.258Z,29.40
2023-02-25T09:21:48.443Z,29.50
2023-02-25T09:24:17.863Z,28.60
2023-02-25T09:26:46.706Z,27.30
2023-02-25T09:29:15.021Z,27.90
2023-02-25T09:31:43.570Z,26.40
2023-02-25T09:34:15.575Z,27.20
2023-02-25T09:36:44.458Z,26.90
2023-02-25T09:39:13.356Z,26.90
2023-02-25T09:41:50.642Z,25.60
2023-02-25T09:44:29.160Z,25.30
2023-02-25T09:47:16.619Z,23.90
2023-02-25T09:49:49.674Z,23.40
2023-02-25T09:52:25.118Z,23.90
2023-02-25T09:54:55.985Z,23.60
2023-02-25T09:57:24.647Z,24.00
2023-02-25T09:59:53.845Z,24.40
2023-02-25T10:02:28.222Z,25.30
2023-02-25T10:05:11.604Z,22.80
2023-02-25T10:07:48.541Z,21.80
2023-02-25T10:10:23.854Z,23.30
2023-02-25T10:13:11.255Z,21.80
2023-02-25T10:16:01.668Z,21.20
2023-02-25T10:18:43.613Z,21.50
2023-02-25T10:21:16.335Z,21.30
2023-02-25T10:23:50.759Z,21.70
2023-02-25T10:26:24.731Z,21.70
2023-02-25T10:28:59.779Z,20.60
2023-02-25T10:31:30.245Z,20.60
2023-02-25T10:34:03.068Z,20.80
2023-02-25T10:36:34.975Z,21.40
2023-02-25T10:39:04.796Z,20.40
2023-02-25T10:41:33.184Z,20.30
2023-02-25T10:44:01.568Z,18.30
2023-02-25T10:46:35.063Z,19.70
2023-02-25T10:49:25.560Z,17.80
2023-02-25T10:52:18.526Z,17.90
2023-02-25T10:54:53.040Z,17.50
2023-02-25T10:57:29.205Z,17.20
2023-02-25T11:00:13.556Z,17.40
2023-02-25T11:02:43.932Z,19.00
2023-02-25T11:05:31.721Z,17.90
2023-02-25T11:08:00.210Z,18.30
2023-02-25T11:13:30.532Z,17.50
2023-02-25T11:16:00.142Z,18.10
2023-02-25T11:18:32.687Z,18.40
2023-02-25T11:21:13.318Z,18.00
2023-02-25T11:23:41.895Z,18.20
2023-02-25T11:26:34.167Z,17.20
2023-02-25T11:29:10.672Z,16.70
2023-02-25T11:31:41.151Z,16.30
2023-02-25T11:34:29.022Z,17.30
2023-02-25T11:37:00.135Z,18.40
2023-02-25T11:39:31.678Z,18.90
2023-02-25T11:42:26.679Z,18.90
2023-02-25T11:45:05.301Z,18.80
2023-02-25T11:47:34.968Z,16.70
2023-02-25T11:50:24.420Z,17.20
2023-02-25T11:53:18.735Z,19.20
2023-02-25T11:56:10.101Z,18.70
2023-02-25T11:59:07.466Z,18.30
2023-02-25T12:01:46.799Z,18.70
2023-02-25T12:04:15.084Z,18.30
2023-02-25T12:07:13.053Z,18.80
2023-02-25T12:09:50.649Z,18.20
2023-02-25T12:12:59.792Z,18.30
2023-02-25T12:15:50.110Z,18.60
2023-02-25T12:18:22.366Z,18.40
2023-02-25T12:21:15.108Z,19.60
2023-02-25T12:24:21.688Z,18.70
2023-02-25T12:26:56.313Z,19.50
2023-02-25T12:29:43.435Z,18.00
2023-02-25T12:32:40.485Z,16.60
2023-02-25T12:35:36.930Z,17.50
2023-02-25T12:38:52.823Z,17.40
2023-02-25T12:41:29.806Z,18.20
2023-02-25T12:44:33.314Z,18.60
2023-02-25T12:47:18.186Z,18.00
2023-02-25T12:50:15.234Z,17.10
2023-02-25T12:53:08.497Z,16.70
2023-02-25T12:56:00.844Z,17.60
2023-02-25T12:58:44.992Z,17.10
2023-02-25T13:01:19.348Z,18.10
2023-02-25T13:04:16.417Z,17.20
2023-02-25T13:06:59.730Z,16.40
2023-02-25T13:09:50.509Z,16.70
2023-02-25T13:15:26.185Z,16.90
2023-02-25T13:18:32.607Z,16.90
2023-02-25T13:21:32.846Z,16.90
2023-02-25T13:24:28.917Z,17.20
2023-02-25T13:27:03.443Z,18.70
2023-02-25T13:29:59.370Z,17.40
2023-02-25T13:32:33.109Z,17.20
2023-02-25T13:35:16.306Z,16.70
2023-02-25T13:38:04.963Z,17.10
2023-02-25T13:40:36.519Z,18.00
2023-02-25T13:43:20.776Z,19.10
2023-02-25T13:46:02.602Z,17.00
2023-02-25T13:48:39.554Z,16.80
2023-02-25T13:51:11.750Z,17.00
2023-02-25T13:54:02.018Z,17.20
2023-02-25T13:56:40.028Z,18.50
2023-02-25T13:59:36.681Z,17.70
2023-02-25T14:02:23.818Z,18.00
2023-02-25T14:05:13.983Z,18.40
2023-02-25T14:07:53.015Z,18.30
2023-02-25T14:10:25.090Z,19.50
2023-02-25T14:13:05.037Z,20.50
2023-02-25T14:16:07.500Z,20.80
2023-02-25T14:18:45.317Z,20.70
2023-02-25T14:21:41.149Z,19.10
2023-02-25T14:24:09.714Z,18.60
2023-02-25T14:27:06.276Z,19.70
2023-02-25T14:29:55.753Z,19.60
2023-02-25T14:32:36.632Z,20.70
2023-02-25T14:35:34.308Z,20.60
2023-02-25T14:38:36.464Z,19.50
2023-02-25T14:41:21.816Z,19.70
2023-02-25T14:43:50.326Z,18.80
2023-02-25T14:46:40.722Z,20.40
2023-02-25T14:49:29.351Z,20.90
2023-02-25T14:52:12.625Z,20.30
2023-02-25T14:55:05.056Z,20.30
2023-02-25T14:57:50.611Z,19.20
2023-02-25T15:01:02.360Z,18.50
2023-02-25T15:03:43.327Z,20.10
2023-02-25T15:06:53.395Z,20.10
2023-02-25T15:09:37.730Z,19.20
2023-02-25T15:12:28.543Z,19.50
2023-02-25T15:15:16.174Z,18.90
2023-02-25T15:17:56.742Z,18.00
2023-02-25T15:20:41.559Z,17.20
2023-02-25T15:23:11.987Z,12.80
2023-02-25T15:25:53.408Z,7.90
2023-02-25T15:28:29.302Z,5.10
2023-02-25T15:31:01.231Z,4.70
2023-02-25T15:33:39.969Z,3.80
2023-02-25T15:36:15.042Z,3.60
2023-02-25T15:38:47.870Z,3.40
2023-02-25T15:41:34.931Z,2.60
2023-02-25T15:44:28.793Z,3.60
2023-02-25T15:47:23.087Z,3.00
2023-02-25T15:49:52.110Z,2.50
2023-02-25T15:52:54.356Z,2.30
2023-02-25T15:55:40.479Z,2.00
2023-02-25T15:58:24.215Z,2.20
2023-02-25T16:00:52.993Z,1.60
2023-02-25T16:03:41.951Z,1.80
2023-02-25T16:06:13.198Z,1.80
2023-02-25T16:08:54.068Z,1.60
2023-02-25T16:11:26.682Z,1.40
2023-02-25T16:13:55.137Z,1.50
2023-02-25T16:16:23.890Z,1.60
2023-02-25T16:18:52.514Z,1.40
2023-02-25T16:21:23.045Z,1.50
2023-02-25T16:23:52.038Z,1.20
2023-02-25T16:26:39.264Z,1.40
2023-02-25T16:29:43.276Z,1.50
2023-02-25T16:32:33.249Z,1.50
2023-02-25T16:35:34.311Z,1.40
2023-02-25T16:38:12.421Z,1.30
2023-02-25T16:40:42.298Z,1.00
2023-02-25T16:43:17.996Z,0.90
2023-02-25T16:45:58.291Z,1.10
2023-02-25T16:48:49.055Z,1.20
2023-02-25T16:51:34.740Z,1.30
2023-02-25T16:54:40.010Z,1.30
2023-02-25T16:57:20.349Z,1.50
2023-02-25T16:59:51.081Z,0.90
2023-02-25T17:02:24.464Z,1.30
2023-02-25T17:04:54.331Z,1.10
2023-02-25T17:10:01.019Z,1.30
2023-02-25T17:12:43.801Z,1.70
2023-02-25T17:15:16.285Z,1.60
2023-02-25T17:17:44.588Z,1.20
2023-02-25T17:20:16.336Z,1.50
2023-02-25T17:22:45.114Z,1.90
2023-02-25T17:25:16.250Z,1.70
2023-02-25T17:27:50.581Z,1.70
2023-02-25T17:30:39.725Z,2.00
2023-02-25T17:33:22.425Z,1.80
2023-02-25T17:35:52.589Z,1.80
2023-02-25T17:38:22.208Z,1.60
2023-02-25T17:40:55.495Z,1.80
2023-02-25T17:43:25.825Z,1.90
2023-02-25T17:45:57.822Z,1.70
2023-02-25T17:48:33.341Z,1.90
2023-02-25T17:51:06.322Z,1.80
2023-02-25T17:53:39.566Z,2.10
2023-02-25T17:56:26.527Z,2.10
2023-02-25T17:59:05.254Z,2.20
2023-02-25T18:01:54.318Z,2.50
2023-02-25T18:04:32.948Z,2.20
2023-02-25T18:07:33.478Z,2.70
2023-02-25T18:10:01.857Z,2.80
2023-02-25T18:12:32.621Z,2.70
2023-02-25T18:15:02.227Z,2.90
2023-02-25T18:17:31.831Z,3.00
2023-02-25T18:20:06.269Z,3.50
2023-02-25T18:22:41.474Z,3.30
2023-02-25T18:25:43.057Z,3.20
2023-02-25T18:28:14.003Z,3.30
2023-02-25T18:30:43.182Z,3.60
2023-02-25T18:33:11.763Z,3.30
2023-02-25T18:35:40.787Z,3.90
2023-02-25T18:38:17.117Z,3.70
2023-02-25T18:40:47.135Z,3.70
2023-02-25T18:43:19.315Z,3.70
2023-02-25T18:45:47.788Z,3.70
2023-02-25T18:48:16.471Z,3.90
2023-02-25T18:50:44.900Z,4.00
2023-02-25T18:53:18.483Z,3.90
2023-02-25T18:55:52.168Z,3.80
2023-02-25T19:00:57.918Z,3.50
2023-02-25T19:03:29.282Z,3.80
2023-02-25T19:05:57.770Z,4.10
2023-02-25T19:08:28.294Z,3.80
2023-02-25T19:10:56.775Z,4.10
2023-02-25T19:13:31.885Z,4.00
2023-02-25T19:16:01.298Z,4.20
2023-02-25T19:18:30.012Z,3.50
2023-02-25T19:20:59.836Z,4.60
2023-02-25T19:23:29.224Z,4.30
2023-02-25T19:25:59.550Z,4.90
2023-02-25T19:28:27.916Z,4.60
2023-02-25T19:30:56.638Z,4.70
2023-02-25T19:33:25.100Z,4.20
2023-02-25T19:35:53.482Z,4.70
2023-02-25T19:38:22.066Z,5.10
2023-02-25T19:40:50.645Z,4.90
2023-02-25T19:43:19.228Z,4.50
2023-02-25T19:45:47.854Z,4.40
2023-02-25T19:48:16.193Z,4.40
2023-02-25T19:50:44.984Z,4.80
2023-02-25T19:53:14.691Z,4.20
2023-02-25T19:55:43.978Z,4.50
2023-02-25T19:58:12.369Z,4.30
2023-02-25T20:00:46.258Z,3.40
2023-02-25T20:03:15.498Z,4.80
2023-02-25T20:05:45.003Z,4.40
2023-02-25T20:08:13.574Z,4.00
2023-02-25T20:10:43.414Z,4.30
2023-02-25T20:13:11.868Z,4.60
2023-02-25T20:15:40.566Z,5.40
2023-02-25T20:18:08.933Z,4.50
2023-02-25T20:20:41.799Z,4.40
2023-02-25T20:23:10.203Z,4.20
2023-02-25T20:25:44.318Z,4.40
2023-02-25T20:28:13.412Z,4.40
2023-02-25T20:30:41.844Z,4.40
2023-02-25T20:33:10.377Z,4.60
2023-02-25T20:35:39.473Z,4.30
2023-02-25T20:38:27.514Z,5.00
2023-02-25T20:40:57.018Z,5.20
2023-02-25T20:43:25.917Z,4.50
2023-02-25T20:45:54.424Z,4.80
2023-02-25T20:48:28.297Z,4.50
2023-02-25T20:50:57.236Z,4.90
2023-02-25T20:53:25.793Z,4.90
2023-02-25T20:55:57.447Z,4.80
2023-02-25T20:58:25.814Z,4.90
2023-02-25T21:00:54.272Z,4.50
2023-02-25T21:03:22.677Z,5.30
2023-02-25T21:05:51.265Z,5.20
2023-02-25T21:08:19.639Z,4.50
2023-02-25T21:10:49.349Z,4.50
2023-02-25T21:13:17.729Z,5.50
2023-02-25T21:15:47.133Z,4.90
2023-02-25T21:18:16.756Z,4.40
2023-02-25T21:20:45.647Z,4.80
2023-02-25T21:23:14.627Z,4.40
2023-02-25T21:25:43.727Z,4.20
2023-02-25T21:28:17.230Z,4.50
2023-02-25T21:30:45.738Z,4.80
2023-02-25T21:33:15.045Z,4.40
2023-02-25T21:35:44.619Z,4.20
2023-02-25T21:38:14.535Z,4.30
2023-02-25T21:43:11.508Z,4.80
2023-02-25T21:45:40.387Z,4.50
2023-02-25T21:48:09.282Z,4.20
2023-02-25T21:50:45.102Z,4.10
2023-02-25T21:53:16.177Z,4.40
2023-02-25T21:55:48.549Z,5.10
2023-02-25T21:58:18.979Z,4.40
2023-02-25T22:00:47.371Z,4.70
2023-02-25T22:03:16.455Z,5.00
2023-02-25T22:05:46.388Z,4.60
2023-02-25T22:08:15.367Z,5.60
2023-02-25T22:10:43.707Z,5.50
2023-02-25T22:13:12.123Z,4.90
2023-02-25T22:15:40.741Z,4.70
2023-02-25T22:18:10.420Z,4.70
2023-02-25T22:20:43.511Z,5.60
2023-02-25T22:23:11.996Z,4.80
2023-02-25T22:25:40.850Z,4.60
2023-02-25T22:28:09.674Z,5.80
2023-02-25T22:30:38.480Z,5.10
2023-02-25T22:33:06.846Z,5.20
2023-02-25T22:35:35.574Z,5.40
2023-02-25T22:38:03.965Z,4.70
2023-02-25T22:40:32.706Z,5.40
2023-02-25T22:43:01.183Z,5.50
2023-02-25T22:45:29.666Z,5.50
2023-02-25T22:47:58.151Z,5.60
2023-02-25T22:50:29.292Z,4.90
2023-02-25T22:52:57.680Z,5.50
2023-02-25T22:55:25.970Z,5.40
2023-02-25T22:57:54.945Z,5.20
2023-02-25T23:00:24.244Z,5.60
2023-02-25T23:02:56.230Z,5.60
2023-02-25T23:05:24.584Z,5.50
2023-02-25T23:07:54.401Z,5.90
2023-02-25T23:10:24.234Z,5.70
2023-02-25T23:12:52.903Z,6.30
2023-02-25T23:15:21.276Z,4.90
2023-02-25T23:17:49.864Z,5.20
2023-02-25T23:20:18.958Z,5.20
2023-02-25T23:22:47.738Z,5.20
2023-02-25T23:25:16.538Z,5.30
2023-02-25T23:27:44.921Z,5.30
2023-02-25T23:31:24.734Z,5.60
2023-02-25T23:34:00.670Z,6.10
2023-02-25T23:36:29.417Z,5.50
2023-02-25T23:38:59.366Z,5.10
2023-02-25T23:41:28.207Z,5.50
2023-02-25T23:43:58.982Z,5.40
2023-02-25T23:46:29.589Z,5.60
2023-02-25T23:48:59.321Z,5.80
2023-02-25T23:51:27.886Z,5.40
2023-02-25T23:53:59.029Z,4.80
2023-02-25T23:56:28.411Z,4.80
2023-02-25T23:58:57.222Z,5.30
